Data Viewer
| City | State | Eastern Time | Source | 1 Hour Temp Max | 1 Hour Temp Min | 1 Hour Dew Point Max | 1 Hour Dew Point Min | 1 Hour RH Max | 1 Hour RH Min | 1 Hour BP Max | 1 Hour BP Min | 1 Hour Precip | 1 Hour Wind Max | 1 Hour Wind Max Dir |
|---|---|---|---|---|---|---|---|---|---|---|---|---|---|---|
| Egg Harbor Twp. | NJ | 2026-05-03 22:00 | Mesonet | 50 | 47 | 34 | 32 | 60 | 53 | 29.96 | 29.95 | 0.00 | 0 | WNW |
| Egg Harbor Twp. | NJ | 2026-05-04 11:00 | Mesonet | 66 | 64 | 48 | 42 | 53 | 43 | 29.97 | 29.96 | 0.00 | 13 | NW |
| Egg Harbor Twp. | NJ | 2026-05-04 20:00 | Mesonet | 62 | 61 | 52 | 51 | 72 | 68 | 29.87 | 29.86 | 0.00 | 9 | S |
| Egg Harbor Twp. | NJ | 2026-05-04 19:00 | Mesonet | 63 | 62 | 53 | 52 | 70 | 67 | 29.87 | 29.86 | 0.00 | 13 | S |
| Egg Harbor Twp. | NJ | 2026-05-04 18:00 | Mesonet | 65 | 63 | 53 | 52 | 69 | 65 | 29.87 | 29.86 | 0.00 | 12 | SSW |
| Egg Harbor Twp. | NJ | 2026-05-04 17:00 | Mesonet | 66 | 64 | 54 | 52 | 68 | 61 | 29.88 | 29.86 | 0.00 | 16 | S |
| Egg Harbor Twp. | NJ | 2026-05-04 16:00 | Mesonet | 66 | 64 | 54 | 51 | 67 | 59 | 29.89 | 29.87 | 0.00 | 16 | SSW |
| Egg Harbor Twp. | NJ | 2026-05-04 15:00 | Mesonet | 67 | 64 | 54 | 50 | 67 | 56 | 29.91 | 29.88 | 0.00 | 16 | NNW |
| Egg Harbor Twp. | NJ | 2026-05-04 14:00 | Mesonet | 67 | 65 | 53 | 51 | 64 | 58 | 29.93 | 29.90 | 0.00 | 17 | NNE |
| Egg Harbor Twp. | NJ | 2026-05-04 13:00 | Mesonet | 69 | 66 | 54 | 46 | 66 | 46 | 29.95 | 29.92 | 0.00 | 16 | W |
| Egg Harbor Twp. | NJ | 2026-05-04 12:00 | Mesonet | 68 | 65 | 53 | 45 | 61 | 46 | 29.96 | 29.94 | 0.00 | 15 | SSW |
| Egg Harbor Twp. | NJ | 2026-05-04 10:00 | Mesonet | 65 | 61 | 47 | 41 | 57 | 44 | 29.98 | 29.96 | 0.00 | 11 | WNW |
| Egg Harbor Twp. | NJ | 2026-05-03 23:00 | Mesonet | 47 | 47 | 35 | 33 | 63 | 59 | 29.97 | 29.96 | 0.00 | 0 | NW |
| Egg Harbor Twp. | NJ | 2026-05-04 09:00 | Mesonet | 61 | 54 | 46 | 43 | 71 | 52 | 30.00 | 29.98 | 0.00 | 7 | E |
| Egg Harbor Twp. | NJ | 2026-05-04 08:00 | Mesonet | 54 | 51 | 45 | 44 | 77 | 69 | 30.00 | 30.00 | 0.00 | 4 | NNW |
| Egg Harbor Twp. | NJ | 2026-05-04 07:00 | Mesonet | 51 | 44 | 44 | 40 | 87 | 76 | 30.01 | 30.00 | 0.00 | 5 | NW |
| Egg Harbor Twp. | NJ | 2026-05-04 06:00 | Mesonet | 47 | 44 | 41 | 40 | 86 | 80 | 30.01 | 30.00 | 0.00 | 0 | NW |
| Egg Harbor Twp. | NJ | 2026-05-04 05:00 | Mesonet | 48 | 46 | 42 | 41 | 87 | 79 | 30.00 | 30.00 | 0.00 | 3 | NW |
| Egg Harbor Twp. | NJ | 2026-05-04 04:00 | Mesonet | 48 | 46 | 43 | 41 | 86 | 80 | 30.00 | 29.99 | 0.00 | 5 | W |
| Egg Harbor Twp. | NJ | 2026-05-04 03:00 | Mesonet | 48 | 46 | 41 | 41 | 82 | 76 | 29.99 | 29.98 | 0.00 | 0 | NW |
| Egg Harbor Twp. | NJ | 2026-05-04 02:00 | Mesonet | 49 | 47 | 41 | 41 | 78 | 75 | 29.99 | 29.98 | 0.00 | 0 | WSW |
| Egg Harbor Twp. | NJ | 2026-05-04 01:00 | Mesonet | 49 | 46 | 41 | 38 | 75 | 72 | 29.98 | 29.97 | 0.00 | 5 | NNW |
| Egg Harbor Twp. | NJ | 2026-05-04 00:00 | Mesonet | 47 | 46 | 38 | 35 | 73 | 63 | 29.97 | 29.97 | 0.00 | 3 | NNW |
| Egg Harbor Twp. | NJ | 2026-05-04 21:00 | Mesonet | 61 | 61 | 52 | 52 | 72 | 71 | 29.87 | 29.87 | 0.00 | 11 | SSE |
data collection created in 0.0088059902191162 (queried in 0.002727) rendered in: 5.1975250244141E-5

